Aérodrome :
LOGIN :

S'inscrire | Disclaimer

   EN    FR    IT 

 










Légende :    VFR   VFR Marginal   IFR   IFR Intensif   IFR Très Intensif
Visi : 
Plafond : 
>= 8 km
>= 3000ft
5 à 8 km
1000 à 3000 ft
1500m à 5 km
500 à 1000 ft
800 à 1500m
200 à 500 ft
< 800m
< 200 ft
Symboles :   Orages  Brouillard  Fortes neiges  Fortes précipitations  Vent > 20 kt
SIGMETs :   Divers  Orages  Givrage  Turbulence  Onde Orograph.  Cendres Volcan.






- Altitude de l'aérodrome : 436 ft
- Code IATA : ANG


LFBU - Angoulême Brie Champniers

DERNIER METAR :
  • 231930Z AUTO 24005KT 9999 FEW016/// OVC066/// ///TCU 15/12 Q1019 BECMG BKN025

METARs EXPIRÉS :
  • 231900Z AUTO 27003KT CAVOK 15/11 Q1019 TEMPO 4000 SHRA FEW020CB BKN025TCU
  • 231830Z AUTO 27008KT 9999 ///TCU 15/11 Q1019 TEMPO 4000 SHRA FEW020CB BKN025TCU
  • 231800Z AUTO 27008KT 9999 ///TCU 15/11 Q1019 TEMPO 4000 SHRA FEW020CB BKN025TCU
  • 231730Z AUTO 28010KT 9999 FEW017/// SCT027/// BKN070/// ///TCU 16/11 Q1018 TEMPO 4000 -SHRA FEW020CB BKN025TCU
  • 231700Z AUTO 27012KT 9999 SCT025/// SCT033/// BKN076/// ///TCU 16/12 Q1018 TEMPO 28015G25KT 4000 -SHRA FEW020CB BKN025TCU
  • 231630Z AUTO 28009KT 9999 SCT024/// BKN031/// OVC094/// ///CB 17/11 Q1018 TEMPO 28015G25KT 4000 -SHRA BKN010 BKN020CB
  • 231600Z AUTO 27011KT 9999 FEW027/// BKN090/// ///CB 17/11 Q1018 TEMPO 28015G25KT 1500 -TSRA BKN010 BKN020CB
  • 231530Z AUTO 26011KT 9999 FEW029/// ///CB 18/11 Q1018 TEMPO 28015G25KT 1500 -TSRA BKN010 BKN020CB
  • 231500Z AUTO 26011KT 210V290 9999 FEW034/// SCT041/// BKN076/// ///CB 19/10 Q1018 TEMPO 28015G25KT 1500 -TSRA BKN010 BKN020CB
  • 231430Z AUTO 25008KT 9999 BKN033/// BKN040/// BKN078/// ///CB 18/10 Q1018 TEMPO 28015G25KT 1500 -TSRA BKN010 BKN020CB

TAF TAF LFBU
Valide du 23 à 18h jusqu'au 24 à 18h UTC


231700Z 2318/2418 27010KT 9999 BKN025
TEMPO 2318/2320 4000 SHRA FEW020CB BKN025TCU
BECMG 2320/2322 VRB03KT
PROB40 2322/2407 3000 BR
PROB30
TEMPO 2401/2407 0800 FG VV///
TEMPO 2407/2410 BKN010
PROB30
TEMPO 2409/2418 -SHRA BKN030TCU



MET'MAP, la Météo Aéronautique d'un coup d'oeil ! - Copyright ORBIFLY Décembre 2007 - Disclaimer

ORBIFLY MET'MAP TEAM :

Programmation & Développement : Alexandra Zaïnal
Sur une idée originale de : Baudouin d'Aumeries
Soutien technique & logistique : Manuel Goepfert
Assistance : Marc-Olivier Méhu




SOURCES & CREDITS :

   NOAA